Terminal Aerodrome Forecast
Issued by NWS Sterling, VA

Current Version | Previous Version | Text Only | Print | Product List | Glossary Off
Versions: 1 2 3 4 5 6 7 8 9 10 11 12 13 14 15 16 17 18 19 20 21 22 23 24 25 26 27 28 29

000
FTUS41 KLWX 150837 AAB
TAFIAD
TAF AMD
KIAD 150837Z 1509/1612 33004KT P6SM FEW009 BKN014 OVC120
     FM151100 VRB03KT 3SM -RA BR OVC015
     FM151600 VRB03KT P6SM BKN020
     FM151900 VRB03KT P6SM BKN035
     FM160300 00000KT P6SM SCT250=

USA.gov is the U.S. government's official web portal to all federal, state and local government web resources and services.